Belgica — ORGQ — position and weather

sailwx.info

Track history (hours):
 
Tides and Currents Weather Stations Pressure Air Temp Water Temp Dewpoint Dewpoint Depression Visibility Wind Speed Wind Dir Waves Ship Positions

Oceanographic research ship Belgica (Belgium)

Detailed information on ship capabilities available from University of Delaware's Ocean Information Center.

Last reported at 2019-Dec-15 07:26 UTC. Time now 2019-Dec-15 10:23 UTC.
Position N 51°20' E 003°12'.

Length 51 m; draft 4.7 m.

MMSI: 205218000.

Date/timePositionNaut miles runAvg speedWind from/ knotsBaromVisibWave heightAir tempDewpointWater temp
2019-Dec-15 07:26N 51°20' E 003°12'0 0.0
2019-Dec-15 03:55N 51°20' E 003°12'0 0.0
2019-Dec-15 03:16N 51°20' E 003°12'0 0.0
2019-Dec-15 02:55N 51°20' E 003°12'0 0.0
2019-Dec-15 00:55N 51°20' E 003°12'0 0.0
2019-Dec-14 17:25N 51°20' E 003°12'0 0.0
2019-Dec-14 15:28N 51°20' E 003°12'0 0.0
2019-Dec-14 14:58N 51°20' E 003°12'0 0.0
2019-Dec-14 14:07N 51°20' E 003°12'0 0.0
2019-Dec-14 12:28N 51°20' E 003°12'0 0.0
2019-Dec-14 10:16N 51°20' E 003°12'0 0.0
2019-Dec-14 09:19N 51°20' E 003°12'0 0.0
2019-Dec-14 06:49N 51°20' E 003°12'0 0.0
2019-Dec-14 06:25N 51°20' E 003°12'0 0.0
2019-Dec-14 05:52N 51°20' E 003°12'0 0.0
2019-Dec-14 04:49N 51°20' E 003°12'0 0.0
2019-Dec-14 04:25N 51°20' E 003°12'0 0.0
2019-Dec-14 03:16N 51°20' E 003°12'0 0.0
2019-Dec-14 02:40N 51°20' E 003°12'0 0.0
2019-Dec-13 23:22N 51°20' E 003°12'0 0.0
2019-Dec-13 22:28N 51°20' E 003°12'0 0.0
2019-Dec-13 20:07N 51°20' E 003°12'0 0.0
2019-Dec-13 18:31N 51°20' E 003°12'0 0.0
2019-Dec-13 16:30N 51°20' E 003°12'0 0.0
2019-Dec-13 16:00N 51°20' E 003°12'0 0.0
2019-Dec-13 12:51N 51°20' E 003°12'0 0.0
2019-Dec-13 04:12N 51°20' E 003°12'0 0.0
2019-Dec-12 23:24N 51°20' E 003°12'0 0.0
2019-Dec-12 20:00N 51°20' E 003°12'0 0.0
2019-Dec-12 15:00N 51°20' E 003°12'0 0.0
2019-Dec-12 13:30N 51°20' E 003°12'0 0.0
2019-Dec-12 12:30N 51°20' E 003°12'0 0.0
2019-Dec-12 11:00N 51°20' E 003°12'0 0.0
2019-Dec-12 10:30N 51°20' E 003°12'2 1.5
2019-Dec-12 09:00N 51°22' E 003°10'9 5.7
2019-Dec-12 07:30N 51°26' E 002°57'8 5.6
2019-Dec-12 06:01N 51°27' E 002°44'10 6.2
2019-Dec-12 04:26N 51°29' E 002°29'19 7.2
2019-Dec-12 01:45N 51°39' E 002°02'2 5.5
2019-Dec-12 01:28N 51°40' E 001°60'5 5.6
2019-Dec-12 00:30N 51°43' E 001°53'3 5.9
2019-Dec-12 00:00N 51°45' E 001°50'8 5.4
2019-Dec-11 22:31N 51°51' E 001°40'3 2.2
2019-Dec-11 21:01N 51°54' E 001°41'1 0.5
2019-Dec-11 19:31N 51°53' E 001°42'6 0.7
2019-Dec-11 11:01N 51°57' E 001°35'1 0.4
2019-Dec-11 09:00N 51°56' E 001°35'0 0.2
2019-Dec-11 07:30N 51°56' E 001°34'0 0.3
2019-Dec-11 06:00N 51°56' E 001°34'0 0.2
2019-Dec-11 04:30N 51°57' E 001°35'2 1.6
2019-Dec-11 03:30N 51°57' E 001°33'4 8.3
2019-Dec-11 03:00N 51°57' E 001°26'0 0.0
2019-Dec-10 22:59N 51°57' E 001°26'0 0.0
2019-Dec-10 21:59N 51°57' E 001°26'0 0.0
2019-Dec-10 20:29N 51°57' E 001°26'0 0.0
2019-Dec-10 18:29N 51°57' E 001°26'0 0.0
2019-Dec-10 16:29N 51°57' E 001°26'0 0.0
2019-Dec-10 14:28N 51°57' E 001°26'0 0.0
2019-Dec-10 12:55N 51°57' E 001°26'0 0.0
2019-Dec-10 12:28N 51°57' E 001°26'0 0.0
2019-Dec-10 11:28N 51°57' E 001°26'0 0.0
2019-Dec-10 10:28N 51°57' E 001°26'0 0.0
2019-Dec-10 09:28N 51°57' E 001°26'0 0.1
2019-Dec-10 08:58N 51°57' E 001°26'8 3.2
2019-Dec-10 06:30N 51°54' E 001°38'2 0.9
2019-Dec-10 04:31N 51°56' E 001°39'1 0.7
2019-Dec-10 03:31N 51°55' E 001°38'0 0.3
2019-Dec-10 03:00N 51°55' E 001°38'0 0.5
2019-Dec-10 02:01N 51°55' E 001°38'0 0.1
2019-Dec-09 22:01N 51°55' E 001°39'1 0.7
2019-Dec-09 21:01N 51°55' E 001°38'0 0.9
2019-Dec-09 20:31N 51°54' E 001°38'2 3.9
2019-Dec-09 20:01N 51°56' E 001°39'1 0.6
2019-Dec-09 18:01N 51°58' E 001°39'19 1.7
2019-Dec-09 06:58N 52°03' E 001°10'0 0.0
2019-Dec-09 04:28N 52°03' E 001°10'0 0.0
2019-Dec-09 03:28N 52°03' E 001°10'0 0.0
2019-Dec-08 22:28N 52°03' E 001°10'0 0.0
2019-Dec-08 20:28N 52°03' E 001°10'0 0.0
2019-Dec-08 19:58N 52°03' E 001°10'0 0.0
2019-Dec-08 17:58N 52°03' E 001°10'0 0.0
2019-Dec-08 16:58N 52°03' E 001°10'0 0.0
2019-Dec-08 13:00N 52°03' E 001°10'0 0.0
2019-Dec-08 11:00N 52°03' E 001°10'0 0.0
2019-Dec-08 10:00N 52°03' E 001°10'0 0.0
2019-Dec-08 09:00N 52°03' E 001°10'0 0.0
2019-Dec-08 03:30N 52°03' E 001°10'0 0.0
2019-Dec-08 03:00N 52°03' E 001°10'0 0.0
2019-Dec-08 02:30N 52°03' E 001°10'0 0.0
2019-Dec-08 01:30N 52°03' E 001°10'0 0.0
2019-Dec-08 00:00N 52°03' E 001°10'0 0.0
2019-Dec-07 23:30N 52°03' E 001°10'0 0.0
2019-Dec-07 21:30N 52°03' E 001°10'0 0.0
2019-Dec-07 20:30N 52°03' E 001°10'0 0.0
2019-Dec-07 15:30N 52°03' E 001°10'0 0.0
2019-Dec-07 14:30N 52°03' E 001°10'0 0.0
2019-Dec-07 14:00N 52°03' E 001°10'0 0.0
2019-Dec-07 10:30N 52°03' E 001°10'0 0.0
2019-Dec-07 09:30N 52°03' E 001°10'0 0.0
2019-Dec-07 08:30N 52°03' E 001°10'0 0.0
2019-Dec-07 07:00N 52°03' E 001°10'0 0.0
2019-Dec-07 06:30N 52°03' E 001°10'0 0.0
2019-Dec-07 04:30N 52°03' E 001°10'0 0.0
2019-Dec-07 02:59N 52°03' E 001°10'0 0.0
2019-Dec-07 00:59N 52°03' E 001°10'0 0.0
2019-Dec-06 23:59N 52°03' E 001°10'0 0.0
2019-Dec-06 23:29N 52°03' E 001°10'0 0.0
2019-Dec-06 21:29N 52°03' E 001°10'0 0.0
2019-Dec-06 20:59N 52°03' E 001°10'0 0.0
2019-Dec-06 19:59N 52°03' E 001°10'0 0.0
2019-Dec-06 19:29N 52°03' E 001°10'6 4.2
2019-Dec-06 18:01N 51°58' E 001°17'6 5.8
2019-Dec-06 17:01N 51°56' E 001°25'4 4.3
2019-Dec-06 16:01N 51°58' E 001°32'5 3.4
2019-Dec-06 14:30N 52°02' E 001°37'1 1.2
2019-Dec-06 14:01N 52°02' E 001°38'6 6.4
2019-Dec-06 13:01N 51°55' E 001°34'1 2.8
2019-Dec-06 12:31N 51°57' E 001°35'0 0.6
2019-Dec-06 12:01N 51°57' E 001°35'1 0.5
2019-Dec-06 11:00N 51°57' E 001°35'5 1.3
2019-Dec-06 07:01N 52°01' E 001°30'2 3.1
2019-Dec-06 06:31N 52°02' E 001°31'1 0.6
2019-Dec-06 04:30N 52°01' E 001°30'7 2.8
2019-Dec-06 02:01N 51°58' E 001°40'2 3.3
2019-Dec-06 01:30N 51°56' E 001°39'1 0.2
2019-Dec-05 22:31N 51°57' E 001°39'1 0.3
2019-Dec-05 19:31N 51°56' E 001°39'1 1.3
2019-Dec-05 18:31N 51°55' E 001°38'2 2.2
2019-Dec-05 17:31N 51°57' E 001°39'3 3.2
2019-Dec-05 16:31N 51°54' E 001°40'4 4.4
2019-Dec-05 15:31N 51°49' E 001°42'12 6.1
2019-Dec-05 13:31N 51°38' E 001°47'5 9.2
2019-Dec-05 13:01N 51°35' E 001°42'15 3.8
2019-Dec-05 09:01N 51°20' E 001°37'  
Track history (hours):
 
Tides and Currents Weather Stations Pressure Air Temp Water Temp Dewpoint Dewpoint Depression Visibility Wind Speed Wind Dir Waves Ship Positions

Oceanographic research ship Belgica (Belgium)

Detailed information on ship capabilities available from University of Delaware's Ocean Information Center.

Last reported at 2019-Dec-15 07:26 UTC. Time now 2019-Dec-15 10:23 UTC.
Position N 51°20' E 003°12'.

Length 51 m; draft 4.7 m.

MMSI: 205218000.

Date/timePositionNaut miles runAvg speedWind from/ knotsBaromVisibWave heightAir tempDewpointWater temp
2019-Dec-15 07:26N 51°20' E 003°12'0 0.0
2019-Dec-15 03:55N 51°20' E 003°12'0 0.0
2019-Dec-15 03:16N 51°20' E 003°12'0 0.0
2019-Dec-15 02:55N 51°20' E 003°12'0 0.0
2019-Dec-15 00:55N 51°20' E 003°12'0 0.0
2019-Dec-14 17:25N 51°20' E 003°12'0 0.0
2019-Dec-14 15:28N 51°20' E 003°12'0 0.0
2019-Dec-14 14:58N 51°20' E 003°12'0 0.0
2019-Dec-14 14:07N 51°20' E 003°12'0 0.0
2019-Dec-14 12:28N 51°20' E 003°12'0 0.0
2019-Dec-14 10:16N 51°20' E 003°12'0 0.0
2019-Dec-14 09:19N 51°20' E 003°12'0 0.0
2019-Dec-14 06:49N 51°20' E 003°12'0 0.0
2019-Dec-14 06:25N 51°20' E 003°12'0 0.0
2019-Dec-14 05:52N 51°20' E 003°12'0 0.0
2019-Dec-14 04:49N 51°20' E 003°12'0 0.0
2019-Dec-14 04:25N 51°20' E 003°12'0 0.0
2019-Dec-14 03:16N 51°20' E 003°12'0 0.0
2019-Dec-14 02:40N 51°20' E 003°12'0 0.0
2019-Dec-13 23:22N 51°20' E 003°12'0 0.0
2019-Dec-13 22:28N 51°20' E 003°12'0 0.0
2019-Dec-13 20:07N 51°20' E 003°12'0 0.0
2019-Dec-13 18:31N 51°20' E 003°12'0 0.0
2019-Dec-13 16:30N 51°20' E 003°12'0 0.0
2019-Dec-13 16:00N 51°20' E 003°12'0 0.0
2019-Dec-13 12:51N 51°20' E 003°12'0 0.0
2019-Dec-13 04:12N 51°20' E 003°12'0 0.0
2019-Dec-12 23:24N 51°20' E 003°12'0 0.0
2019-Dec-12 20:00N 51°20' E 003°12'0 0.0
2019-Dec-12 15:00N 51°20' E 003°12'0 0.0
2019-Dec-12 13:30N 51°20' E 003°12'0 0.0
2019-Dec-12 12:30N 51°20' E 003°12'0 0.0
2019-Dec-12 11:00N 51°20' E 003°12'0 0.0
2019-Dec-12 10:30N 51°20' E 003°12'2 1.5
2019-Dec-12 09:00N 51°22' E 003°10'9 5.7
2019-Dec-12 07:30N 51°26' E 002°57'8 5.6
2019-Dec-12 06:01N 51°27' E 002°44'10 6.2
2019-Dec-12 04:26N 51°29' E 002°29'19 7.2
2019-Dec-12 01:45N 51°39' E 002°02'2 5.5
2019-Dec-12 01:28N 51°40' E 001°60'5 5.6
2019-Dec-12 00:30N 51°43' E 001°53'3 5.9
2019-Dec-12 00:00N 51°45' E 001°50'8 5.4
2019-Dec-11 22:31N 51°51' E 001°40'3 2.2
2019-Dec-11 21:01N 51°54' E 001°41'1 0.5
2019-Dec-11 19:31N 51°53' E 001°42'6 0.7
2019-Dec-11 11:01N 51°57' E 001°35'1 0.4
2019-Dec-11 09:00N 51°56' E 001°35'0 0.2
2019-Dec-11 07:30N 51°56' E 001°34'0 0.3
2019-Dec-11 06:00N 51°56' E 001°34'0 0.2
2019-Dec-11 04:30N 51°57' E 001°35'2 1.6
2019-Dec-11 03:30N 51°57' E 001°33'4 8.3
2019-Dec-11 03:00N 51°57' E 001°26'0 0.0
2019-Dec-10 22:59N 51°57' E 001°26'0 0.0
2019-Dec-10 21:59N 51°57' E 001°26'0 0.0
2019-Dec-10 20:29N 51°57' E 001°26'0 0.0
2019-Dec-10 18:29N 51°57' E 001°26'0 0.0
2019-Dec-10 16:29N 51°57' E 001°26'0 0.0
2019-Dec-10 14:28N 51°57' E 001°26'0 0.0
2019-Dec-10 12:55N 51°57' E 001°26'0 0.0
2019-Dec-10 12:28N 51°57' E 001°26'0 0.0
2019-Dec-10 11:28N 51°57' E 001°26'0 0.0
2019-Dec-10 10:28N 51°57' E 001°26'0 0.0
2019-Dec-10 09:28N 51°57' E 001°26'0 0.1
2019-Dec-10 08:58N 51°57' E 001°26'8 3.2
2019-Dec-10 06:30N 51°54' E 001°38'2 0.9
2019-Dec-10 04:31N 51°56' E 001°39'1 0.7
2019-Dec-10 03:31N 51°55' E 001°38'0 0.3
2019-Dec-10 03:00N 51°55' E 001°38'0 0.5
2019-Dec-10 02:01N 51°55' E 001°38'0 0.1
2019-Dec-09 22:01N 51°55' E 001°39'1 0.7
2019-Dec-09 21:01N 51°55' E 001°38'0 0.9
2019-Dec-09 20:31N 51°54' E 001°38'2 3.9
2019-Dec-09 20:01N 51°56' E 001°39'1 0.6
2019-Dec-09 18:01N 51°58' E 001°39'19 1.7
2019-Dec-09 06:58N 52°03' E 001°10'0 0.0
2019-Dec-09 04:28N 52°03' E 001°10'0 0.0
2019-Dec-09 03:28N 52°03' E 001°10'0 0.0
2019-Dec-08 22:28N 52°03' E 001°10'0 0.0
2019-Dec-08 20:28N 52°03' E 001°10'0 0.0
2019-Dec-08 19:58N 52°03' E 001°10'0 0.0
2019-Dec-08 17:58N 52°03' E 001°10'0 0.0
2019-Dec-08 16:58N 52°03' E 001°10'0 0.0
2019-Dec-08 13:00N 52°03' E 001°10'0 0.0
2019-Dec-08 11:00N 52°03' E 001°10'0 0.0
2019-Dec-08 10:00N 52°03' E 001°10'0 0.0
2019-Dec-08 09:00N 52°03' E 001°10'0 0.0
2019-Dec-08 03:30N 52°03' E 001°10'0 0.0
2019-Dec-08 03:00N 52°03' E 001°10'0 0.0
2019-Dec-08 02:30N 52°03' E 001°10'0 0.0
2019-Dec-08 01:30N 52°03' E 001°10'0 0.0
2019-Dec-08 00:00N 52°03' E 001°10'0 0.0
2019-Dec-07 23:30N 52°03' E 001°10'0 0.0
2019-Dec-07 21:30N 52°03' E 001°10'0 0.0
2019-Dec-07 20:30N 52°03' E 001°10'0 0.0
2019-Dec-07 15:30N 52°03' E 001°10'0 0.0
2019-Dec-07 14:30N 52°03' E 001°10'0 0.0
2019-Dec-07 14:00N 52°03' E 001°10'0 0.0
2019-Dec-07 10:30N 52°03' E 001°10'0 0.0
2019-Dec-07 09:30N 52°03' E 001°10'0 0.0
2019-Dec-07 08:30N 52°03' E 001°10'0 0.0
2019-Dec-07 07:00N 52°03' E 001°10'0 0.0
2019-Dec-07 06:30N 52°03' E 001°10'0 0.0
2019-Dec-07 04:30N 52°03' E 001°10'0 0.0
2019-Dec-07 02:59N 52°03' E 001°10'0 0.0
2019-Dec-07 00:59N 52°03' E 001°10'0 0.0
2019-Dec-06 23:59N 52°03' E 001°10'0 0.0
2019-Dec-06 23:29N 52°03' E 001°10'0 0.0
2019-Dec-06 21:29N 52°03' E 001°10'0 0.0
2019-Dec-06 20:59N 52°03' E 001°10'0 0.0
2019-Dec-06 19:59N 52°03' E 001°10'0 0.0
2019-Dec-06 19:29N 52°03' E 001°10'6 4.2
2019-Dec-06 18:01N 51°58' E 001°17'6 5.8
2019-Dec-06 17:01N 51°56' E 001°25'4 4.3
2019-Dec-06 16:01N 51°58' E 001°32'5 3.4
2019-Dec-06 14:30N 52°02' E 001°37'1 1.2
2019-Dec-06 14:01N 52°02' E 001°38'6 6.4
2019-Dec-06 13:01N 51°55' E 001°34'1 2.8
2019-Dec-06 12:31N 51°57' E 001°35'0 0.6
2019-Dec-06 12:01N 51°57' E 001°35'1 0.5
2019-Dec-06 11:00N 51°57' E 001°35'5 1.3
2019-Dec-06 07:01N 52°01' E 001°30'2 3.1
2019-Dec-06 06:31N 52°02' E 001°31'1 0.6
2019-Dec-06 04:30N 52°01' E 001°30'7 2.8
2019-Dec-06 02:01N 51°58' E 001°40'2 3.3
2019-Dec-06 01:30N 51°56' E 001°39'1 0.2
2019-Dec-05 22:31N 51°57' E 001°39'1 0.3
2019-Dec-05 19:31N 51°56' E 001°39'1 1.3
2019-Dec-05 18:31N 51°55' E 001°38'2 2.2
2019-Dec-05 17:31N 51°57' E 001°39'3 3.2
2019-Dec-05 16:31N 51°54' E 001°40'4 4.4
2019-Dec-05 15:31N 51°49' E 001°42'12 6.1
2019-Dec-05 13:31N 51°38' E 001°47'5 9.2
2019-Dec-05 13:01N 51°35' E 001°42'15 3.8
2019-Dec-05 09:01N 51°20' E 001°37'  

Dump ship's entire track history